createdAt,value
2017-08-02T00:00:32.526Z,85.50
2017-08-02T00:03:00.733Z,85.50
2017-08-02T00:05:28.916Z,85.90
2017-08-02T00:07:57.084Z,85.80
2017-08-02T00:10:25.280Z,86.00
2017-08-02T00:12:53.457Z,85.70
2017-08-02T00:15:21.624Z,85.60
2017-08-02T00:17:49.827Z,85.30
2017-08-02T00:20:18.002Z,85.30
2017-08-02T00:22:46.169Z,85.80
2017-08-02T00:25:14.369Z,86.30
2017-08-02T00:27:43.308Z,85.60
2017-08-02T00:30:11.481Z,85.60
2017-08-02T00:32:39.684Z,85.90
2017-08-02T00:35:07.857Z,86.00
2017-08-02T00:37:36.026Z,85.50
2017-08-02T00:40:04.235Z,85.80
2017-08-02T00:42:33.174Z,85.70
2017-08-02T00:45:01.347Z,86.50
2017-08-02T00:47:29.549Z,85.80
2017-08-02T00:49:57.725Z,86.10
2017-08-02T00:52:25.896Z,86.10
2017-08-02T00:54:54.140Z,86.30
2017-08-02T00:57:22.314Z,86.00
2017-08-02T00:59:50.493Z,86.10
2017-08-02T01:02:18.688Z,86.30
2017-08-02T01:04:46.856Z,85.90
2017-08-02T01:07:15.022Z,86.50
2017-08-02T01:09:43.224Z,86.20
2017-08-02T01:12:11.404Z,85.90
2017-08-02T01:14:39.573Z,86.20
2017-08-02T01:17:07.781Z,86.70
2017-08-02T01:19:36.725Z,86.30
2017-08-02T01:22:04.890Z,86.20
2017-08-02T01:24:33.088Z,86.70
2017-08-02T01:27:01.268Z,86.80
2017-08-02T01:29:29.437Z,86.30
2017-08-02T01:31:57.636Z,86.10
2017-08-02T01:34:26.582Z,87.40
2017-08-02T01:36:54.756Z,86.90
2017-08-02T01:39:23.035Z,86.90
2017-08-02T01:41:51.200Z,86.70
2017-08-02T01:44:19.373Z,86.90
2017-08-02T01:46:47.573Z,86.50
2017-08-02T01:49:15.748Z,86.10
2017-08-02T01:51:43.914Z,85.90
2017-08-02T01:54:12.121Z,86.30
2017-08-02T01:56:40.285Z,86.50
2017-08-02T01:59:08.461Z,86.70
2017-08-02T02:01:36.666Z,86.70
2017-08-02T02:04:05.604Z,86.70
2017-08-02T02:06:33.781Z,86.70
2017-08-02T02:09:01.978Z,86.70
2017-08-02T02:11:30.149Z,86.50
2017-08-02T02:13:58.323Z,86.40
2017-08-02T02:16:26.523Z,86.20
2017-08-02T02:18:55.463Z,86.20
2017-08-02T02:21:23.629Z,86.20
2017-08-02T02:23:52.144Z,86.90
2017-08-02T02:26:20.317Z,87.30
2017-08-02T02:28:48.493Z,87.30
2017-08-02T02:31:16.687Z,87.30
2017-08-02T02:33:44.866Z,87.20
2017-08-02T02:36:13.800Z,86.40
2017-08-02T02:38:42.004Z,86.80
2017-08-02T02:41:10.174Z,86.80
2017-08-02T02:43:38.321Z,86.80
2017-08-02T02:46:06.508Z,87.00
2017-08-02T02:48:34.669Z,87.40
2017-08-02T02:51:02.818Z,87.40
2017-08-02T02:53:31.775Z,86.40
2017-08-02T02:55:59.941Z,86.40
2017-08-02T02:58:28.099Z,87.00
2017-08-02T03:00:56.297Z,86.90
2017-08-02T03:03:24.460Z,87.00
2017-08-02T03:05:54.246Z,86.60
2017-08-02T03:08:22.426Z,86.40
2017-08-02T03:10:50.578Z,86.60
2017-08-02T03:13:18.749Z,86.90
2017-08-02T03:15:47.690Z,86.50
2017-08-02T03:18:15.839Z,86.50
2017-08-02T03:20:43.986Z,86.50
2017-08-02T03:23:12.934Z,86.40
2017-08-02T03:25:41.111Z,86.40
2017-08-02T03:28:09.277Z,86.60
2017-08-02T03:30:37.479Z,86.70
2017-08-02T03:33:05.652Z,86.70
2017-08-02T03:35:33.803Z,86.50
2017-08-02T03:38:01.987Z,86.90
2017-08-02T03:40:30.134Z,86.90
2017-08-02T03:42:59.261Z,86.70
2017-08-02T03:45:27.457Z,86.70
2017-08-02T03:47:55.626Z,86.60
2017-08-02T03:50:23.821Z,86.70
2017-08-02T03:52:52.001Z,86.70
2017-08-02T03:55:20.174Z,86.40
2017-08-02T03:57:48.329Z,86.50
2017-08-02T04:00:16.549Z,86.30
2017-08-02T04:02:44.698Z,86.20
2017-08-02T04:05:12.874Z,85.90
2017-08-02T04:07:41.046Z,85.90
2017-08-02T04:10:09.222Z,86.00
2017-08-02T04:12:37.373Z,86.60
2017-08-02T04:15:05.574Z,86.50
2017-08-02T04:17:33.745Z,86.20
2017-08-02T04:20:01.915Z,86.20
2017-08-02T04:22:30.089Z,86.10
2017-08-02T04:24:58.246Z,86.40
2017-08-02T04:27:26.412Z,87.00
2017-08-02T04:29:54.897Z,86.70
2017-08-02T04:32:23.066Z,86.50
2017-08-02T04:34:51.210Z,86.80
2017-08-02T04:37:20.170Z,88.00
2017-08-02T04:39:48.353Z,88.00
2017-08-02T04:42:16.505Z,88.50
2017-08-02T04:44:44.704Z,88.80
2017-08-02T04:47:12.864Z,89.30
2017-08-02T04:49:41.039Z,88.60
2017-08-02T04:52:09.223Z,88.20
2017-08-02T04:54:37.402Z,88.40
2017-08-02T04:57:05.554Z,88.60
2017-08-02T04:59:34.157Z,88.40
2017-08-02T05:02:02.327Z,88.10
2017-08-02T05:04:30.478Z,88.50
2017-08-02T05:06:58.678Z,88.60
2017-08-02T05:09:26.829Z,88.40
2017-08-02T05:11:54.977Z,88.10
2017-08-02T05:14:23.155Z,87.90
2017-08-02T05:16:51.328Z,87.20
2017-08-02T05:19:19.479Z,87.60
2017-08-02T05:21:48.427Z,86.30
2017-08-02T05:24:16.579Z,86.10
2017-08-02T05:26:44.734Z,86.50
2017-08-02T05:29:12.940Z,85.70
2017-08-02T05:31:41.093Z,86.90
2017-08-02T05:34:09.257Z,86.90
2017-08-02T05:36:37.439Z,86.90
2017-08-02T05:39:05.586Z,86.70
2017-08-02T05:41:34.504Z,87.20
2017-08-02T05:44:02.704Z,87.00
2017-08-02T05:46:30.868Z,87.40
2017-08-02T05:48:59.021Z,85.50
2017-08-02T05:51:27.206Z,86.30
2017-08-02T05:53:55.381Z,86.40
2017-08-02T05:56:23.530Z,86.10
2017-08-02T05:58:52.074Z,85.20
2017-08-02T06:01:20.250Z,85.70
2017-08-02T06:03:48.421Z,85.20
2017-08-02T06:06:16.621Z,84.80
2017-08-02T06:08:44.792Z,85.30
2017-08-02T06:11:12.954Z,84.40
2017-08-02T06:13:41.167Z,84.50
2017-08-02T06:16:09.314Z,84.00
2017-08-02T06:18:37.490Z,83.20
2017-08-02T06:21:05.670Z,82.60
2017-08-02T06:23:33.821Z,82.40
2017-08-02T06:26:01.977Z,80.70
2017-08-02T06:28:30.160Z,80.40
2017-08-02T06:30:58.332Z,77.70
2017-08-02T06:33:26.496Z,77.10
2017-08-02T06:35:54.714Z,77.80
2017-08-02T06:38:22.868Z,79.00
2017-08-02T06:40:51.040Z,77.90
2017-08-02T06:43:19.221Z,77.50
2017-08-02T06:45:47.365Z,77.10
2017-08-02T06:48:15.533Z,77.50
2017-08-02T06:50:43.704Z,76.80
2017-08-02T06:53:12.728Z,77.20
2017-08-02T06:55:40.898Z,75.40
2017-08-02T06:58:09.084Z,74.30
2017-08-02T07:00:37.262Z,74.10
2017-08-02T07:03:05.418Z,72.60
2017-08-02T07:05:33.611Z,73.40
2017-08-02T07:08:01.754Z,73.10
2017-08-02T07:10:29.929Z,72.40
2017-08-02T07:12:58.142Z,72.50
2017-08-02T07:15:26.317Z,72.00
2017-08-02T07:17:54.470Z,71.70
2017-08-02T07:20:22.646Z,72.40
2017-08-02T07:22:50.794Z,72.20
2017-08-02T07:25:18.965Z,72.20
2017-08-02T07:27:47.143Z,72.20
2017-08-02T07:30:15.316Z,72.20
2017-08-02T07:32:43.462Z,71.80
2017-08-02T07:35:12.428Z,70.90
2017-08-02T07:37:40.600Z,70.90
2017-08-02T07:40:08.763Z,71.90
2017-08-02T07:42:36.957Z,69.50
2017-08-02T07:45:05.123Z,68.70
2017-08-02T07:47:33.275Z,66.80
2017-08-02T07:50:01.449Z,63.10
2017-08-02T07:52:29.599Z,61.30
2017-08-02T07:54:57.747Z,57.70
2017-08-02T07:57:26.701Z,58.50
2017-08-02T07:59:54.846Z,57.90
2017-08-02T08:02:22.995Z,57.20
2017-08-02T08:04:51.957Z,58.30
2017-08-02T08:07:20.126Z,58.20
2017-08-02T08:09:48.289Z,57.10
2017-08-02T08:12:16.487Z,56.80
2017-08-02T08:14:44.643Z,58.00
2017-08-02T08:17:12.806Z,55.90
2017-08-02T08:19:41.018Z,54.50
2017-08-02T08:22:09.167Z,53.30
2017-08-02T08:24:37.328Z,51.60
2017-08-02T08:27:05.524Z,50.20
2017-08-02T08:29:33.694Z,47.90
2017-08-02T08:32:01.862Z,45.60
2017-08-02T08:34:30.046Z,44.00
2017-08-02T08:36:58.211Z,41.40
2017-08-02T08:39:26.367Z,40.70
2017-08-02T08:41:54.571Z,37.90
2017-08-02T08:44:22.742Z,38.30
2017-08-02T08:46:50.906Z,38.20
2017-08-02T08:49:19.102Z,35.70
2017-08-02T08:51:47.248Z,35.40
2017-08-02T08:54:15.402Z,36.20
2017-08-02T08:56:43.575Z,36.30
2017-08-02T08:59:11.723Z,34.30
2017-08-02T09:01:39.872Z,34.20
2017-08-02T09:04:08.046Z,33.90
2017-08-02T09:06:36.194Z,32.90
2017-08-02T09:09:04.343Z,32.80
2017-08-02T09:11:32.544Z,31.90
2017-08-02T09:14:00.698Z,31.90
2017-08-02T09:16:28.846Z,33.60
2017-08-02T09:18:57.791Z,34.10
2017-08-02T09:21:25.980Z,34.10
2017-08-02T09:23:54.159Z,33.20
2017-08-02T09:26:22.354Z,31.30
2017-08-02T09:28:51.274Z,32.20
2017-08-02T09:31:19.423Z,32.10
2017-08-02T09:33:47.618Z,34.10
2017-08-02T09:36:15.792Z,37.80
2017-08-02T09:38:43.938Z,39.90
2017-08-02T09:41:12.132Z,41.20
2017-08-02T09:43:40.285Z,44.00
2017-08-02T09:46:08.457Z,45.50
2017-08-02T09:48:36.654Z,45.40
2017-08-02T09:51:05.585Z,43.70
2017-08-02T09:53:33.756Z,43.70
2017-08-02T09:56:01.936Z,44.30
2017-08-02T09:58:30.080Z,45.70
2017-08-02T10:00:58.222Z,47.00
2017-08-02T10:03:26.417Z,47.40
2017-08-02T10:05:55.494Z,49.40
2017-08-02T10:08:23.657Z,49.40
2017-08-02T10:10:51.870Z,49.80
2017-08-02T10:13:20.040Z,51.20
2017-08-02T10:15:48.970Z,51.40
2017-08-02T10:18:17.143Z,51.30
2017-08-02T10:20:45.295Z,51.00
2017-08-02T10:23:13.466Z,50.20
2017-08-02T10:25:41.639Z,50.90
2017-08-02T10:28:09.804Z,51.90
2017-08-02T10:30:38.719Z,50.40
2017-08-02T10:33:06.894Z,50.30
2017-08-02T10:35:35.047Z,48.80
2017-08-02T10:38:03.962Z,49.80
2017-08-02T10:40:32.159Z,49.70
2017-08-02T10:43:00.329Z,48.30
2017-08-02T10:45:28.497Z,48.70
2017-08-02T10:47:56.670Z,49.30
2017-08-02T10:50:24.831Z,49.80
2017-08-02T10:52:52.996Z,47.80
2017-08-02T10:55:21.172Z,48.50
2017-08-02T10:57:49.330Z,48.80
2017-08-02T11:00:18.240Z,46.90
2017-08-02T11:02:46.414Z,46.80
2017-08-02T11:05:14.583Z,46.40
2017-08-02T11:07:42.754Z,45.10
2017-08-02T11:10:10.949Z,45.20
2017-08-02T11:12:39.103Z,43.40
2017-08-02T11:15:07.276Z,41.90
2017-08-02T11:17:35.455Z,43.60
2017-08-02T11:20:03.760Z,44.40
2017-08-02T11:22:31.934Z,44.20
2017-08-02T11:25:00.135Z,41.10
2017-08-02T11:27:28.288Z,39.00
2017-08-02T11:29:56.443Z,38.70
2017-08-02T11:32:24.641Z,39.20
2017-08-02T11:34:52.802Z,38.40
2017-08-02T11:37:20.974Z,38.00
2017-08-02T11:39:49.150Z,35.00
2017-08-02T11:42:17.298Z,33.40
2017-08-02T11:44:45.469Z,33.00
2017-08-02T11:47:13.642Z,32.20
2017-08-02T11:49:41.816Z,32.80
2017-08-02T11:52:09.989Z,33.00
2017-08-02T11:54:38.181Z,34.10
2017-08-02T11:57:06.329Z,35.40
2017-08-02T11:59:35.264Z,35.90
2017-08-02T12:02:03.456Z,35.90
2017-08-02T12:04:31.630Z,36.70
2017-08-02T12:06:59.782Z,37.60
2017-08-02T12:09:27.967Z,37.50
2017-08-02T12:11:56.140Z,38.20
2017-08-02T12:14:24.290Z,38.30
2017-08-02T12:16:52.494Z,38.70
2017-08-02T12:19:20.670Z,39.30
2017-08-02T12:21:48.817Z,40.40
2017-08-02T12:24:17.002Z,39.10
2017-08-02T12:26:45.157Z,39.10
2017-08-02T12:29:13.306Z,40.50
2017-08-02T12:31:41.504Z,40.30
2017-08-02T12:34:09.657Z,40.70
2017-08-02T12:36:37.824Z,40.40
2017-08-02T12:39:06.006Z,40.90
2017-08-02T12:41:34.172Z,42.00
2017-08-02T12:44:02.318Z,42.60
2017-08-02T12:46:30.493Z,43.60
2017-08-02T12:48:58.650Z,44.50
2017-08-02T12:51:26.816Z,44.30
2017-08-02T12:53:55.016Z,46.40
2017-08-02T12:56:23.165Z,46.20
2017-08-02T12:58:51.333Z,45.80
2017-08-02T13:01:19.506Z,46.80
2017-08-02T13:03:47.673Z,46.80
2017-08-02T13:06:16.607Z,46.70
2017-08-02T13:08:44.782Z,46.70
2017-08-02T13:11:12.955Z,47.00
2017-08-02T13:13:41.126Z,47.70
2017-08-02T13:16:09.301Z,47.30
2017-08-02T13:18:37.465Z,46.90
2017-08-02T13:21:05.610Z,46.80
2017-08-02T13:23:34.557Z,46.30
2017-08-02T13:26:02.707Z,46.20
2017-08-02T13:28:30.899Z,45.30
2017-08-02T13:30:59.070Z,46.40
2017-08-02T13:33:27.215Z,46.80
2017-08-02T13:35:55.378Z,47.50
2017-08-02T13:38:24.336Z,48.80
2017-08-02T13:40:52.482Z,48.80
2017-08-02T13:43:20.657Z,49.60
2017-08-02T13:45:48.849Z,50.20
2017-08-02T13:48:17.009Z,50.20
2017-08-02T13:50:45.937Z,50.20
2017-08-02T13:53:14.116Z,50.10
2017-08-02T13:55:42.285Z,50.60
2017-08-02T13:58:10.459Z,52.30
2017-08-02T14:00:38.632Z,54.70
2017-08-02T14:03:06.800Z,58.40
2017-08-02T14:05:34.955Z,62.00
2017-08-02T14:08:03.157Z,67.90
2017-08-02T14:10:31.330Z,70.30
2017-08-02T14:12:59.498Z,76.70
2017-08-02T14:15:27.701Z,78.10
2017-08-02T14:17:56.618Z,78.20
2017-08-02T14:20:24.784Z,78.10
2017-08-02T14:22:52.988Z,80.80
2017-08-02T14:25:21.155Z,75.30
2017-08-02T14:27:49.327Z,78.20
2017-08-02T14:30:17.498Z,79.80
2017-08-02T14:32:45.642Z,77.40
2017-08-02T14:35:13.819Z,72.80
2017-08-02T14:37:42.767Z,67.80
2017-08-02T14:40:10.946Z,67.80
2017-08-02T14:42:39.099Z,70.00
2017-08-02T14:45:07.279Z,69.50
2017-08-02T14:47:35.432Z,69.00
2017-08-02T14:50:03.586Z,69.80
2017-08-02T14:52:32.526Z,67.10
2017-08-02T14:55:00.701Z,67.10
2017-08-02T14:57:28.855Z,68.30
2017-08-02T14:59:57.056Z,69.00
2017-08-02T15:02:25.228Z,65.50
2017-08-02T15:04:53.386Z,67.60
2017-08-02T15:07:21.571Z,67.00
2017-08-02T15:09:49.740Z,60.20
2017-08-02T15:12:17.916Z,60.20
2017-08-02T15:14:46.115Z,60.50
2017-08-02T15:17:14.271Z,61.00
2017-08-02T15:19:42.448Z,63.40
2017-08-02T15:22:10.630Z,65.30
2017-08-02T15:24:38.802Z,63.50
2017-08-02T15:27:06.951Z,63.70
2017-08-02T15:29:35.133Z,65.60
2017-08-02T15:32:03.307Z,65.20
2017-08-02T15:34:31.457Z,60.50
2017-08-02T15:36:59.641Z,62.90
2017-08-02T15:39:27.824Z,62.70
2017-08-02T15:41:56.003Z,63.20
2017-08-02T15:44:24.213Z,60.70
2017-08-02T15:46:52.370Z,60.10
2017-08-02T15:49:20.545Z,60.70
2017-08-02T15:51:48.757Z,59.90
2017-08-02T15:54:17.683Z,59.70
2017-08-02T15:56:45.858Z,59.70
2017-08-02T15:59:14.064Z,59.10
2017-08-02T16:01:42.242Z,59.40
2017-08-02T16:04:10.418Z,58.60
2017-08-02T16:06:38.619Z,58.20
2017-08-02T16:09:07.562Z,58.60
2017-08-02T16:11:35.713Z,58.60
2017-08-02T16:14:03.917Z,59.10
2017-08-02T16:16:32.088Z,60.00
2017-08-02T16:19:00.242Z,59.40
2017-08-02T16:21:28.437Z,60.00
2017-08-02T16:23:56.604Z,57.40
2017-08-02T16:26:24.767Z,58.50
2017-08-02T16:28:52.947Z,59.70
2017-08-02T16:31:21.122Z,58.00
2017-08-02T16:33:49.270Z,56.80
2017-08-02T16:36:18.237Z,56.40
2017-08-02T16:38:46.392Z,56.40
2017-08-02T16:41:14.561Z,56.30
2017-08-02T16:43:42.764Z,56.70
2017-08-02T16:46:10.914Z,55.00
2017-08-02T16:48:39.084Z,53.90
2017-08-02T16:51:07.282Z,52.50
2017-08-02T16:53:35.457Z,52.40
2017-08-02T16:56:03.629Z,53.00
2017-08-02T16:58:31.828Z,53.40
2017-08-02T17:01:00.769Z,52.60
2017-08-02T17:03:28.945Z,52.60
2017-08-02T17:05:57.136Z,52.20
2017-08-02T17:08:25.305Z,51.90
2017-08-02T17:10:53.454Z,50.70
2017-08-02T17:13:21.657Z,51.10
2017-08-02T17:15:49.828Z,51.40
2017-08-02T17:18:17.974Z,51.20
2017-08-02T17:20:46.161Z,51.00
2017-08-02T17:23:14.314Z,50.20
2017-08-02T17:25:42.457Z,50.00
2017-08-02T17:28:10.635Z,49.90
2017-08-02T17:30:39.554Z,48.90
2017-08-02T17:33:07.986Z,48.60
2017-08-02T17:35:36.479Z,48.60
2017-08-02T17:38:04.947Z,48.80
2017-08-02T17:40:33.147Z,47.70
2017-08-02T17:43:02.102Z,47.20
2017-08-02T17:45:30.249Z,46.90
2017-08-02T17:47:58.399Z,47.10
2017-08-02T17:50:27.362Z,46.80
2017-08-02T17:52:55.526Z,46.80
2017-08-02T17:55:23.671Z,46.60
2017-08-02T17:57:51.838Z,46.60
2017-08-02T18:00:20.029Z,47.20
2017-08-02T18:02:48.169Z,46.60
2017-08-02T18:05:16.341Z,47.20
2017-08-02T18:07:45.273Z,47.30
2017-08-02T18:10:13.448Z,47.30
2017-08-02T18:12:41.669Z,47.40
2017-08-02T18:15:10.604Z,48.00
2017-08-02T18:17:38.773Z,47.90
2017-08-02T18:20:06.979Z,48.00
2017-08-02T18:22:35.126Z,48.10
2017-08-02T18:25:03.277Z,48.50
2017-08-02T18:27:32.232Z,48.90
2017-08-02T18:30:00.392Z,48.90
2017-08-02T18:32:28.539Z,49.20
2017-08-02T18:34:56.731Z,48.60
2017-08-02T18:37:24.894Z,48.60
2017-08-02T18:39:53.044Z,49.70
2017-08-02T18:42:21.220Z,49.50
2017-08-02T18:44:49.605Z,49.80
2017-08-02T18:47:17.755Z,50.10
2017-08-02T18:49:45.928Z,50.30
2017-08-02T18:52:14.095Z,50.80
2017-08-02T18:54:42.274Z,51.20
2017-08-02T18:57:11.215Z,51.40
2017-08-02T18:59:39.394Z,51.40
2017-08-02T19:02:07.565Z,51.60
2017-08-02T19:04:35.737Z,52.00
2017-08-02T19:07:03.904Z,52.30
2017-08-02T19:09:32.068Z,52.60
2017-08-02T19:12:00.264Z,52.90
2017-08-02T19:14:28.438Z,53.10
2017-08-02T19:16:56.584Z,53.40
2017-08-02T19:19:24.815Z,53.90
2017-08-02T19:21:52.987Z,54.10
2017-08-02T19:24:21.139Z,54.40
2017-08-02T19:26:49.341Z,54.50
2017-08-02T19:29:17.486Z,54.90
2017-08-02T19:31:45.653Z,55.50
2017-08-02T19:34:13.857Z,55.70
2017-08-02T19:36:42.013Z,55.90
2017-08-02T19:39:10.192Z,56.10
2017-08-02T19:41:38.375Z,56.40
2017-08-02T19:44:06.544Z,56.60
2017-08-02T19:46:34.695Z,57.00
2017-08-02T19:49:02.882Z,57.40
2017-08-02T19:51:31.045Z,57.60
2017-08-02T19:53:59.189Z,57.70
2017-08-02T19:56:28.157Z,58.10
2017-08-02T19:58:56.361Z,58.10
2017-08-02T20:01:24.541Z,58.20
2017-08-02T20:03:53.504Z,58.00
2017-08-02T20:06:21.663Z,57.80
2017-08-02T20:08:49.825Z,57.20
2017-08-02T20:11:18.002Z,57.10
2017-08-02T20:13:46.155Z,56.50
2017-08-02T20:16:14.330Z,56.50
2017-08-02T20:18:42.524Z,56.50
2017-08-02T20:21:10.689Z,55.90
2017-08-02T20:23:38.842Z,55.70
2017-08-02T20:26:07.042Z,55.90
2017-08-02T20:28:35.199Z,56.10
2017-08-02T20:31:03.364Z,55.50
2017-08-02T20:33:31.565Z,54.80
2017-08-02T20:35:59.716Z,54.40
2017-08-02T20:38:27.880Z,54.50
2017-08-02T20:40:56.066Z,54.90
2017-08-02T20:43:24.215Z,55.40
2017-08-02T20:45:53.148Z,55.60
2017-08-02T20:48:21.345Z,55.50
2017-08-02T20:50:49.508Z,55.90
2017-08-02T20:53:17.677Z,56.30
2017-08-02T20:55:45.851Z,56.50
2017-08-02T20:58:14.001Z,56.70
2017-08-02T21:00:42.170Z,57.10
2017-08-02T21:03:10.371Z,57.40
2017-08-02T21:05:38.527Z,57.70
2017-08-02T21:08:06.685Z,58.10
2017-08-02T21:10:35.650Z,58.60
2017-08-02T21:13:03.806Z,58.60
2017-08-02T21:15:31.979Z,58.90
2017-08-02T21:18:00.182Z,59.30
2017-08-02T21:20:29.123Z,59.70
2017-08-02T21:22:57.284Z,59.70
2017-08-02T21:25:25.902Z,60.40
2017-08-02T21:27:54.078Z,60.50
2017-08-02T21:30:22.228Z,61.20
2017-08-02T21:32:50.436Z,62.10
2017-08-02T21:35:18.591Z,62.90
2017-08-02T21:37:46.742Z,63.40
2017-08-02T21:40:14.924Z,64.00
2017-08-02T21:42:43.069Z,64.40
2017-08-02T21:45:12.008Z,64.90
2017-08-02T21:47:40.194Z,64.90
2017-08-02T21:50:08.382Z,65.00
2017-08-02T21:52:36.562Z,65.10
2017-08-02T21:55:04.754Z,65.20
2017-08-02T21:57:33.690Z,65.00
2017-08-02T22:00:01.861Z,64.60
2017-08-02T22:02:30.047Z,64.70
2017-08-02T22:04:58.202Z,64.70
2017-08-02T22:07:26.374Z,64.90
2017-08-02T22:09:54.573Z,64.60
2017-08-02T22:12:22.757Z,64.80
2017-08-02T22:14:50.919Z,65.00
2017-08-02T22:17:19.112Z,64.80
2017-08-02T22:19:47.293Z,65.10
2017-08-02T22:22:15.438Z,64.60
2017-08-02T22:24:43.636Z,64.20
2017-08-02T22:27:11.786Z,64.40
2017-08-02T22:29:39.942Z,64.60
2017-08-02T22:32:08.114Z,63.70
2017-08-02T22:34:36.286Z,61.80
2017-08-02T22:37:04.440Z,62.50
2017-08-02T22:39:32.641Z,62.00
2017-08-02T22:42:00.818Z,61.70
2017-08-02T22:44:29.008Z,62.30
2017-08-02T22:46:57.211Z,61.60
2017-08-02T22:49:25.367Z,61.80
2017-08-02T22:51:53.516Z,62.40
2017-08-02T22:54:21.717Z,61.80
2017-08-02T22:56:49.888Z,62.00
2017-08-02T22:59:18.056Z,62.30
2017-08-02T23:01:46.261Z,62.50
2017-08-02T23:04:14.433Z,62.90
2017-08-02T23:06:42.604Z,63.70
2017-08-02T23:09:10.809Z,64.00
2017-08-02T23:11:39.745Z,64.60
2017-08-02T23:14:07.894Z,65.30
2017-08-02T23:16:36.856Z,66.60
2017-08-02T23:19:05.028Z,66.50
2017-08-02T23:21:33.182Z,66.90
2017-08-02T23:24:01.374Z,66.70
2017-08-02T23:26:29.548Z,67.20
2017-08-02T23:28:57.702Z,68.00
2017-08-02T23:31:25.897Z,68.40
2017-08-02T23:33:54.063Z,68.70
2017-08-02T23:36:22.223Z,68.80
2017-08-02T23:38:50.426Z,68.70
2017-08-02T23:41:18.601Z,69.60
2017-08-02T23:43:46.773Z,71.20
2017-08-02T23:46:14.954Z,71.80
2017-08-02T23:48:43.118Z,71.90
2017-08-02T23:51:11.297Z,72.80
2017-08-02T23:53:39.525Z,73.00
2017-08-02T23:56:07.672Z,73.20
2017-08-02T23:58:36.609Z,73.60
